createdAt,value
2017-11-08T00:00:34.067Z,19.00
2017-11-08T00:03:03.146Z,18.77
2017-11-08T00:05:31.654Z,18.67
2017-11-08T00:08:01.700Z,19.40
2017-11-08T00:10:29.804Z,19.70
2017-11-08T00:12:57.920Z,18.67
2017-11-08T00:15:26.928Z,21.03
2017-11-08T00:17:55.028Z,19.30
2017-11-08T00:20:24.865Z,18.90
2017-11-08T00:22:53.937Z,17.83
2017-11-08T00:25:22.837Z,18.70
2017-11-08T00:27:51.027Z,18.70
2017-11-08T00:30:19.561Z,19.67
2017-11-08T00:32:47.763Z,18.03
2017-11-08T00:35:16.905Z,19.80
2017-11-08T00:37:45.034Z,19.37
2017-11-08T00:40:14.040Z,18.60
2017-11-08T00:42:42.388Z,20.67
2017-11-08T00:45:10.491Z,18.00
2017-11-08T00:47:38.604Z,18.97
2017-11-08T00:50:06.772Z,18.67
2017-11-08T00:52:35.052Z,18.87
2017-11-08T00:55:03.256Z,19.30
2017-11-08T00:57:37.267Z,19.63
2017-11-08T01:00:08.860Z,20.40
2017-11-08T01:02:36.965Z,19.90
2017-11-08T01:05:05.072Z,20.80
2017-11-08T01:07:34.912Z,19.70
2017-11-08T01:10:03.777Z,19.50
2017-11-08T01:12:32.675Z,19.20
2017-11-08T01:15:01.657Z,21.23
2017-11-08T01:17:30.660Z,18.80
2017-11-08T01:20:03.768Z,19.10
2017-11-08T01:22:31.904Z,18.20
2017-11-08T01:25:00.022Z,17.27
2017-11-08T01:27:28.380Z,18.20
2017-11-08T01:29:57.356Z,18.60
2017-11-08T01:32:26.380Z,16.80
2017-11-08T01:34:55.265Z,18.90
2017-11-08T01:40:22.659Z,17.57
2017-11-08T01:42:50.790Z,17.77
2017-11-08T01:45:20.031Z,19.53
2017-11-08T01:47:48.181Z,17.80
2017-11-08T01:50:18.356Z,18.03
2017-11-08T01:52:47.761Z,19.50
2017-11-08T01:55:15.886Z,19.47
2017-11-08T01:57:44.010Z,17.70
2017-11-08T02:00:12.270Z,17.50
2017-11-08T02:02:40.497Z,18.87
2017-11-08T02:05:08.586Z,17.90
2017-11-08T02:07:36.730Z,17.20
2017-11-08T02:10:06.787Z,18.03
2017-11-08T02:12:34.931Z,17.57
2017-11-08T02:15:03.872Z,18.37
2017-11-08T02:17:33.293Z,18.00
2017-11-08T02:20:02.174Z,17.40
2017-11-08T02:22:30.286Z,17.70
2017-11-08T02:25:00.303Z,18.27
2017-11-08T02:27:34.451Z,20.30
2017-11-08T02:30:02.814Z,17.73
2017-11-08T02:32:30.936Z,18.50
2017-11-08T02:35:00.176Z,17.67
2017-11-08T02:37:28.290Z,17.27
2017-11-08T02:39:56.412Z,17.97
2017-11-08T02:42:24.583Z,19.10
2017-11-08T02:44:52.857Z,19.23
2017-11-08T02:47:20.961Z,19.07
2017-11-08T02:49:49.215Z,19.20
2017-11-08T02:52:17.376Z,20.50
2017-11-08T02:54:45.496Z,17.40
2017-11-08T02:57:13.928Z,19.23
2017-11-08T02:59:42.042Z,18.87
2017-11-08T03:02:12.300Z,18.90
2017-11-08T03:04:46.590Z,18.80
2017-11-08T03:07:15.006Z,17.70
2017-11-08T03:09:43.166Z,19.40
2017-11-08T03:12:11.472Z,18.07
2017-11-08T03:14:39.619Z,17.80
2017-11-08T03:17:07.730Z,18.70
2017-11-08T03:19:36.804Z,19.07
2017-11-08T03:22:06.828Z,20.67
2017-11-08T03:24:35.729Z,19.40
2017-11-08T03:27:03.904Z,20.00
2017-11-08T03:29:32.868Z,19.40
2017-11-08T03:32:00.956Z,19.60
2017-11-08T03:34:29.233Z,18.33
2017-11-08T03:36:57.627Z,19.10
2017-11-08T03:39:25.761Z,19.07
2017-11-08T03:41:53.856Z,19.40
2017-11-08T03:44:21.948Z,17.97
2017-11-08T03:46:51.905Z,19.90
2017-11-08T03:49:19.996Z,19.40
2017-11-08T03:51:48.160Z,18.20
2017-11-08T03:54:16.356Z,19.27
2017-11-08T03:56:44.540Z,18.70
2017-11-08T03:59:12.698Z,19.20
2017-11-08T04:01:41.256Z,18.47
2017-11-08T04:04:09.427Z,19.37
2017-11-08T04:06:37.962Z,20.53
2017-11-08T04:09:06.116Z,19.60
2017-11-08T04:11:34.446Z,19.30
2017-11-08T04:14:03.274Z,18.97
2017-11-08T04:16:31.444Z,19.87
2017-11-08T04:19:00.307Z,18.10
2017-11-08T04:21:28.428Z,18.57
2017-11-08T04:23:56.647Z,19.77
2017-11-08T04:26:25.204Z,20.13
2017-11-08T04:28:54.275Z,19.37
2017-11-08T04:31:22.420Z,21.80
2017-11-08T04:33:50.633Z,20.00
2017-11-08T04:36:18.841Z,20.40
2017-11-08T04:38:48.090Z,21.37
2017-11-08T04:41:16.240Z,22.37
2017-11-08T04:43:44.423Z,21.83
2017-11-08T04:46:13.308Z,21.60
2017-11-08T04:48:41.449Z,22.20
2017-11-08T04:51:09.572Z,21.40
2017-11-08T04:53:40.718Z,22.00
2017-11-08T04:56:09.684Z,20.77
2017-11-08T04:58:37.822Z,20.00
2017-11-08T05:01:06.892Z,22.70
2017-11-08T05:03:35.040Z,20.47
2017-11-08T05:06:03.215Z,21.10
2017-11-08T05:08:31.338Z,21.43
2017-11-08T05:11:00.229Z,20.60
2017-11-08T05:13:29.152Z,22.33
2017-11-08T05:15:57.888Z,21.90
2017-11-08T05:18:26.010Z,22.27
2017-11-08T05:20:54.172Z,22.77
2017-11-08T05:23:22.347Z,22.30
2017-11-08T05:25:50.575Z,22.47
2017-11-08T05:28:18.842Z,22.43
2017-11-08T05:30:46.971Z,24.37
2017-11-08T05:33:15.161Z,23.27
2017-11-08T05:35:43.506Z,23.80
2017-11-08T05:38:11.659Z,21.60
2017-11-08T05:40:40.693Z,21.17
2017-11-08T05:43:09.065Z,20.87
2017-11-08T05:45:38.180Z,24.37
2017-11-08T05:48:06.347Z,23.30
2017-11-08T05:50:34.770Z,23.57
2017-11-08T05:53:02.881Z,23.10
2017-11-08T05:55:31.876Z,22.83
2017-11-08T05:58:00.786Z,20.67
2017-11-08T06:00:29.143Z,19.60
2017-11-08T06:02:58.075Z,21.13
2017-11-08T06:05:26.633Z,22.07
2017-11-08T06:07:54.953Z,21.67
2017-11-08T06:10:23.216Z,21.90
2017-11-08T06:12:51.636Z,22.57
2017-11-08T06:15:19.984Z,22.20
2017-11-08T06:17:48.082Z,21.53
2017-11-08T06:20:16.319Z,22.73
2017-11-08T06:22:44.843Z,23.10
2017-11-08T06:25:13.081Z,22.37
2017-11-08T06:27:42.240Z,21.03
2017-11-08T06:30:10.463Z,21.00
2017-11-08T06:32:38.736Z,22.53
2017-11-08T06:35:07.174Z,21.80
2017-11-08T06:37:36.318Z,21.87
2017-11-08T06:40:04.488Z,21.30
2017-11-08T06:42:33.481Z,21.47
2017-11-08T06:45:02.813Z,19.80
2017-11-08T06:47:30.997Z,20.97
2017-11-08T06:49:59.399Z,20.67
2017-11-08T06:52:27.568Z,22.77
2017-11-08T06:54:56.727Z,23.67
2017-11-08T06:57:25.810Z,26.90
2017-11-08T06:59:53.981Z,26.90
2017-11-08T07:02:22.090Z,27.47
2017-11-08T07:04:51.284Z,27.43
2017-11-08T07:07:21.080Z,27.23
2017-11-08T07:09:49.255Z,22.27
2017-11-08T07:12:17.588Z,22.20
2017-11-08T07:15:00.438Z,21.93
2017-11-08T07:17:31.682Z,23.40
2017-11-08T07:19:59.869Z,22.90
2017-11-08T07:22:29.213Z,23.20
2017-11-08T07:24:58.801Z,23.63
2017-11-08T07:27:27.180Z,23.87
2017-11-08T07:29:56.667Z,23.80
2017-11-08T07:32:24.798Z,23.90
2017-11-08T07:34:53.025Z,26.17
2017-11-08T07:37:23.038Z,26.80
2017-11-08T07:39:51.276Z,25.60
2017-11-08T07:42:19.400Z,25.30
2017-11-08T07:44:47.560Z,25.27
2017-11-08T07:47:16.388Z,24.10
2017-11-08T07:49:44.603Z,26.30
2017-11-08T07:52:12.884Z,23.17
2017-11-08T07:54:47.464Z,25.10
2017-11-08T07:57:22.071Z,22.53
2017-11-08T07:59:53.844Z,25.20
2017-11-08T08:02:22.474Z,26.43
2017-11-08T08:04:50.600Z,27.30
2017-11-08T08:07:19.964Z,27.50
2017-11-08T08:09:49.957Z,25.60
2017-11-08T08:12:18.093Z,26.00
2017-11-08T08:14:46.227Z,24.37
2017-11-08T08:17:14.412Z,25.90
2017-11-08T08:19:46.163Z,23.50
2017-11-08T08:22:14.253Z,23.40
2017-11-08T08:24:43.145Z,23.27
2017-11-08T08:27:16.012Z,24.23
2017-11-08T08:29:44.173Z,24.03
2017-11-08T08:32:12.291Z,23.73
2017-11-08T08:34:40.421Z,25.27
2017-11-08T08:37:09.779Z,28.60
2017-11-08T08:39:38.009Z,25.50
2017-11-08T08:42:06.172Z,24.77
2017-11-08T08:44:34.302Z,25.33
2017-11-08T08:47:02.423Z,25.27
2017-11-08T08:49:30.604Z,25.00
2017-11-08T08:51:59.831Z,25.27
2017-11-08T08:54:27.918Z,24.70
2017-11-08T08:56:56.041Z,25.10
2017-11-08T08:59:24.161Z,26.27
2017-11-08T09:01:52.280Z,25.40
2017-11-08T09:04:20.506Z,26.97
2017-11-08T09:06:48.694Z,26.73
2017-11-08T09:09:16.814Z,28.70
2017-11-08T09:11:45.921Z,27.50
2017-11-08T09:14:14.797Z,27.33
2017-11-08T09:16:43.707Z,27.60
2017-11-08T09:19:12.640Z,27.40
2017-11-08T09:21:40.746Z,27.17
2017-11-08T09:24:08.951Z,27.97
2017-11-08T09:26:37.227Z,26.83
2017-11-08T09:29:06.144Z,27.47
2017-11-08T09:31:37.302Z,28.13
2017-11-08T09:34:05.527Z,26.47
2017-11-08T09:36:35.340Z,26.07
2017-11-08T09:39:03.688Z,26.13
2017-11-08T09:41:31.825Z,25.60
2017-11-08T09:43:59.990Z,25.10
2017-11-08T09:46:28.235Z,26.40
2017-11-08T09:48:57.150Z,25.97
2017-11-08T09:51:25.288Z,26.23
2017-11-08T09:53:54.790Z,23.60
2017-11-08T09:56:23.820Z,27.10
2017-11-08T09:58:52.163Z,26.20
2017-11-08T10:01:24.067Z,26.90
2017-11-08T10:03:52.269Z,25.23
2017-11-08T10:06:20.395Z,26.30
2017-11-08T10:08:49.472Z,25.73
2017-11-08T10:11:18.428Z,25.57
2017-11-08T10:13:46.566Z,25.47
2017-11-08T10:16:18.680Z,27.20
2017-11-08T10:18:47.651Z,26.50
2017-11-08T10:21:15.749Z,26.03
2017-11-08T10:23:43.859Z,26.30
2017-11-08T10:26:12.143Z,26.80
2017-11-08T10:28:40.296Z,28.50
2017-11-08T10:31:08.712Z,29.97
2017-11-08T10:33:37.757Z,29.23
2017-11-08T10:36:05.888Z,27.63
2017-11-08T10:38:34.014Z,28.00
2017-11-08T10:41:02.911Z,27.43
2017-11-08T10:43:31.034Z,28.87
2017-11-08T10:45:59.138Z,30.50
2017-11-08T10:48:28.237Z,29.03
2017-11-08T10:50:57.122Z,30.03
2017-11-08T10:53:26.449Z,29.73
2017-11-08T10:55:54.688Z,30.07
2017-11-08T10:58:24.567Z,30.63
2017-11-08T11:00:52.954Z,32.33
2017-11-08T11:03:26.982Z,31.77
2017-11-08T11:05:55.129Z,30.63
2017-11-08T11:08:24.145Z,32.37
2017-11-08T11:10:52.345Z,31.30
2017-11-08T11:13:20.553Z,31.90
2017-11-08T11:15:49.163Z,34.07
2017-11-08T11:18:18.062Z,33.30
2017-11-08T11:20:47.997Z,35.50
2017-11-08T11:23:16.190Z,34.23
2017-11-08T11:25:46.909Z,36.90
2017-11-08T11:28:15.792Z,34.87
2017-11-08T11:30:43.966Z,35.73
2017-11-08T11:33:12.230Z,33.70
2017-11-08T11:35:40.370Z,36.20
2017-11-08T11:38:11.365Z,36.60
2017-11-08T11:40:40.325Z,37.20
2017-11-08T11:43:08.533Z,35.73
2017-11-08T11:45:36.776Z,37.43
2017-11-08T11:48:04.981Z,37.03
2017-11-08T11:50:33.281Z,37.67
2017-11-08T11:53:02.567Z,36.87
2017-11-08T11:55:32.047Z,35.83
2017-11-08T11:58:00.237Z,35.03
2017-11-08T12:00:30.149Z,36.30
2017-11-08T12:02:58.703Z,37.40
2017-11-08T12:05:26.870Z,37.23
2017-11-08T12:07:56.361Z,40.07
2017-11-08T12:10:27.141Z,38.50
2017-11-08T12:12:55.496Z,39.47
2017-11-08T12:15:24.333Z,38.70
2017-11-08T12:17:52.597Z,37.97
2017-11-08T12:20:21.522Z,37.40
2017-11-08T12:22:53.635Z,39.80
2017-11-08T12:25:21.800Z,37.50
2017-11-08T12:27:50.074Z,39.40
2017-11-08T12:30:18.216Z,51.30
2017-11-08T12:32:47.681Z,38.20
2017-11-08T12:35:15.844Z,40.60
2017-11-08T12:37:44.104Z,40.07
2017-11-08T12:40:27.096Z,38.77
2017-11-08T12:42:55.247Z,42.07
2017-11-08T12:45:23.360Z,42.80
2017-11-08T12:47:51.473Z,42.30
2017-11-08T12:50:19.616Z,41.30
2017-11-08T12:52:48.712Z,44.87
2017-11-08T12:55:16.890Z,43.93
2017-11-08T12:57:45.933Z,43.10
2017-11-08T13:00:14.854Z,44.87
2017-11-08T13:02:43.053Z,44.20
2017-11-08T13:05:11.424Z,44.07
2017-11-08T13:07:39.965Z,43.90
2017-11-08T13:10:08.142Z,43.67
2017-11-08T13:12:37.304Z,44.87
2017-11-08T13:15:06.443Z,41.80
2017-11-08T13:17:35.377Z,45.13
2017-11-08T13:20:03.474Z,44.23
2017-11-08T13:22:32.935Z,44.80
2017-11-08T13:25:01.069Z,45.60
2017-11-08T13:27:29.182Z,44.30
2017-11-08T13:29:57.322Z,44.83
2017-11-08T13:32:25.421Z,43.50
2017-11-08T13:34:54.010Z,42.90
2017-11-08T13:37:22.516Z,46.00
2017-11-08T13:39:51.152Z,43.90
2017-11-08T13:42:20.973Z,46.57
2017-11-08T13:44:49.138Z,43.73
2017-11-08T13:47:20.911Z,46.63
2017-11-08T13:49:49.086Z,46.33
2017-11-08T13:52:17.990Z,46.37
2017-11-08T13:54:46.161Z,45.57
2017-11-08T13:57:14.571Z,45.60
2017-11-08T13:59:43.738Z,46.17
2017-11-08T14:02:12.681Z,45.70
2017-11-08T14:04:40.989Z,45.23
2017-11-08T14:07:09.509Z,47.80
2017-11-08T14:09:37.738Z,47.97
2017-11-08T14:12:05.887Z,49.23
2017-11-08T14:14:35.013Z,47.67
2017-11-08T14:17:04.107Z,47.53
2017-11-08T14:19:32.278Z,50.87
2017-11-08T14:22:01.166Z,49.83
2017-11-08T14:24:29.398Z,50.87
2017-11-08T14:26:57.737Z,51.27
2017-11-08T14:29:25.897Z,52.17
2017-11-08T14:31:54.060Z,51.93
2017-11-08T14:34:22.953Z,48.53
2017-11-08T14:36:51.970Z,54.00
2017-11-08T14:39:21.890Z,54.37
2017-11-08T14:41:50.817Z,48.97
2017-11-08T14:44:19.405Z,52.60
2017-11-08T14:46:49.681Z,52.43
2017-11-08T14:49:17.778Z,51.87
2017-11-08T14:51:49.315Z,53.70
2017-11-08T14:54:18.661Z,55.80
2017-11-08T14:56:46.821Z,51.43
2017-11-08T14:59:15.754Z,55.40
2017-11-08T15:01:44.582Z,53.63
2017-11-08T15:04:12.761Z,55.00
2017-11-08T15:06:40.954Z,50.20
2017-11-08T15:09:09.347Z,52.80
2017-11-08T15:11:37.475Z,51.23
2017-11-08T15:14:05.699Z,51.87
2017-11-08T15:16:33.873Z,52.40
2017-11-08T15:19:02.053Z,51.13
2017-11-08T15:21:30.316Z,50.73
2017-11-08T15:23:58.495Z,51.47
2017-11-08T15:26:27.105Z,49.50
2017-11-08T15:28:55.330Z,52.87
2017-11-08T15:31:30.065Z,52.53
2017-11-08T15:33:59.251Z,53.00
2017-11-08T15:36:27.546Z,57.77
2017-11-08T15:38:55.676Z,55.10
2017-11-08T15:41:23.988Z,54.23
2017-11-08T15:43:58.666Z,59.97
2017-11-08T15:46:31.612Z,55.30
2017-11-08T15:51:53.277Z,53.00
2017-11-08T15:54:21.447Z,53.87
2017-11-08T15:56:49.604Z,51.73
2017-11-08T15:59:17.797Z,53.77
2017-11-08T16:01:46.025Z,53.27
2017-11-08T16:04:14.168Z,55.60
2017-11-08T16:06:42.482Z,55.30
2017-11-08T16:09:10.624Z,53.80
2017-11-08T16:11:39.537Z,55.50
2017-11-08T16:14:08.040Z,55.07
2017-11-08T16:16:36.429Z,56.00
2017-11-08T16:19:04.597Z,60.50
2017-11-08T16:21:32.709Z,54.57
2017-11-08T16:24:01.022Z,54.07
2017-11-08T16:26:29.139Z,54.70
2017-11-08T16:28:57.286Z,59.60
2017-11-08T16:31:25.521Z,62.80
2017-11-08T16:33:54.762Z,57.70
2017-11-08T16:36:24.228Z,53.73
2017-11-08T16:38:52.597Z,56.27
2017-11-08T16:41:22.465Z,54.50
2017-11-08T16:43:50.617Z,53.60
2017-11-08T16:46:19.494Z,54.30
2017-11-08T16:48:48.512Z,55.07
2017-11-08T16:51:16.642Z,54.77
2017-11-08T16:53:44.767Z,52.50
2017-11-08T16:56:13.563Z,54.57
2017-11-08T16:58:41.694Z,53.73
2017-11-08T17:01:11.005Z,53.67
2017-11-08T17:03:39.146Z,56.57
2017-11-08T17:06:09.282Z,60.23
2017-11-08T17:08:37.837Z,51.90
2017-11-08T17:11:05.951Z,55.20
2017-11-08T17:13:34.121Z,52.87
2017-11-08T17:16:02.625Z,55.67
2017-11-08T17:18:31.001Z,57.07
2017-11-08T17:21:02.579Z,62.83
2017-11-08T17:23:30.802Z,54.30
2017-11-08T17:25:59.547Z,56.83
2017-11-08T17:28:27.662Z,55.23
2017-11-08T17:30:55.829Z,54.50
2017-11-08T17:33:25.730Z,58.80
2017-11-08T17:35:54.020Z,56.00
2017-11-08T17:38:22.272Z,55.13
2017-11-08T17:40:50.520Z,54.73
2017-11-08T17:43:19.577Z,55.57
2017-11-08T17:45:47.696Z,53.17
2017-11-08T17:48:16.830Z,53.37
2017-11-08T17:50:45.063Z,51.87
2017-11-08T17:53:15.298Z,48.57
2017-11-08T17:55:43.550Z,52.63
2017-11-08T17:58:12.121Z,53.70
2017-11-08T18:07:05.218Z,46.27
2017-11-08T18:12:35.442Z,51.43
2017-11-08T18:15:04.619Z,64.17
2017-11-08T18:17:32.870Z,56.13
2017-11-08T18:20:01.398Z,60.20
2017-11-08T18:22:31.351Z,49.87
2017-11-08T18:24:59.465Z,47.60
2017-11-08T18:27:27.720Z,52.60
2017-11-08T18:29:55.989Z,49.40
2017-11-08T18:32:24.177Z,45.80
2017-11-08T18:34:52.518Z,45.80
2017-11-08T18:37:20.766Z,47.57
2017-11-08T18:39:49.755Z,44.90
2017-11-08T18:42:20.040Z,45.90
2017-11-08T18:44:49.218Z,46.10
2017-11-08T18:47:17.447Z,45.00
2017-11-08T18:49:45.678Z,45.30
2017-11-08T18:52:13.969Z,45.67
2017-11-08T18:54:43.211Z,44.20
2017-11-08T18:57:13.117Z,59.07
2017-11-08T18:59:41.315Z,44.70
2017-11-08T19:02:09.596Z,46.57
2017-11-08T19:04:37.875Z,45.73
2017-11-08T19:07:06.105Z,44.77
2017-11-08T19:09:36.181Z,45.40
2017-11-08T19:12:04.450Z,43.87
2017-11-08T19:14:32.952Z,41.57
2017-11-08T19:17:01.223Z,43.00
2017-11-08T19:19:29.377Z,43.67
2017-11-08T19:21:57.610Z,45.60
2017-11-08T19:24:25.853Z,47.90
2017-11-08T19:26:53.966Z,45.07
2017-11-08T19:29:23.254Z,45.37
2017-11-08T19:31:52.464Z,45.30
2017-11-08T19:34:22.423Z,44.17
2017-11-08T19:36:50.617Z,44.90
2017-11-08T19:39:19.426Z,45.10
2017-11-08T19:41:47.669Z,45.90
2017-11-08T19:44:18.027Z,49.63
2017-11-08T19:46:49.954Z,48.47
2017-11-08T19:49:18.093Z,44.03
2017-11-08T19:51:47.521Z,45.63
2017-11-08T19:54:17.682Z,47.57
2017-11-08T19:56:47.978Z,46.97
2017-11-08T19:59:16.347Z,51.17
2017-11-08T20:01:45.592Z,50.00
2017-11-08T20:04:14.837Z,48.50
2017-11-08T20:06:43.079Z,45.07
2017-11-08T20:09:11.965Z,49.70
2017-11-08T20:11:46.059Z,46.60
2017-11-08T20:14:17.079Z,46.17
2017-11-08T20:16:46.176Z,48.07
2017-11-08T20:19:14.318Z,47.43
2017-11-08T20:21:42.444Z,52.50
2017-11-08T20:24:10.585Z,50.80
2017-11-08T20:26:38.963Z,50.67
2017-11-08T20:29:08.171Z,49.17
2017-11-08T20:31:36.364Z,50.70
2017-11-08T20:34:05.495Z,49.30
2017-11-08T20:36:33.858Z,51.60
2017-11-08T20:39:02.112Z,52.33
2017-11-08T20:41:30.266Z,52.87
2017-11-08T20:43:58.447Z,53.80
2017-11-08T20:46:28.887Z,55.40
2017-11-08T20:48:59.096Z,53.37
2017-11-08T20:51:28.195Z,83.90
2017-11-08T20:53:56.479Z,58.57
2017-11-08T20:56:24.754Z,55.43
2017-11-08T20:58:53.399Z,53.80
2017-11-08T21:01:21.617Z,54.27
2017-11-08T21:03:50.100Z,56.50
2017-11-08T21:06:20.596Z,58.23
2017-11-08T21:08:52.533Z,56.80
2017-11-08T21:11:21.598Z,57.30
2017-11-08T21:13:51.876Z,56.17
2017-11-08T21:16:20.026Z,56.50
2017-11-08T21:18:48.917Z,53.63
2017-11-08T21:21:17.170Z,55.83
2017-11-08T21:23:45.326Z,54.57
2017-11-08T21:26:17.694Z,54.00
2017-11-08T21:28:47.471Z,54.20
2017-11-08T21:31:15.986Z,56.10
2017-11-08T21:33:44.520Z,50.77
2017-11-08T21:36:12.769Z,55.43
2017-11-08T21:38:41.035Z,55.23
2017-11-08T21:41:09.506Z,51.27
2017-11-08T21:43:37.650Z,59.57
2017-11-08T21:46:15.712Z,65.30
2017-11-08T21:55:11.113Z,58.03
2017-11-08T21:57:39.257Z,55.17
2017-11-08T22:06:07.102Z,54.57
2017-11-08T22:08:38.244Z,56.07
2017-11-08T22:11:10.777Z,55.07
2017-11-08T22:13:43.676Z,54.70
2017-11-08T22:16:11.945Z,54.87
2017-11-08T22:18:43.621Z,53.97
2017-11-08T22:21:11.886Z,57.70
2017-11-08T22:23:41.057Z,56.67
2017-11-08T22:26:11.078Z,59.50
2017-11-08T22:28:39.998Z,54.57
2017-11-08T22:31:09.246Z,53.53
2017-11-08T22:33:37.502Z,54.57
2017-11-08T22:36:06.249Z,55.63
2017-11-08T22:38:34.504Z,51.40
2017-11-08T22:41:04.280Z,51.43
2017-11-08T22:43:32.587Z,53.00
2017-11-08T22:46:01.561Z,52.90
2017-11-08T22:48:30.099Z,49.13
2017-11-08T22:50:59.193Z,51.57
2017-11-08T22:53:27.387Z,52.20
2017-11-08T22:55:55.669Z,51.97
2017-11-08T22:58:25.505Z,52.47
2017-11-08T23:00:53.757Z,53.57
2017-11-08T23:03:21.970Z,50.30
2017-11-08T23:05:51.228Z,49.20
2017-11-08T23:08:21.387Z,53.10
2017-11-08T23:10:51.424Z,51.17
2017-11-08T23:13:20.430Z,51.60
2017-11-08T23:15:49.661Z,50.33
2017-11-08T23:18:22.112Z,50.67
2017-11-08T23:20:50.335Z,47.77
2017-11-08T23:23:19.318Z,51.40
2017-11-08T23:25:47.472Z,56.13
2017-11-08T23:28:16.490Z,53.30
2017-11-08T23:30:44.785Z,54.63
2017-11-08T23:33:13.134Z,56.47
2017-11-08T23:35:41.398Z,56.00
2017-11-08T23:38:09.963Z,52.23
2017-11-08T23:40:39.088Z,47.93
2017-11-08T23:43:07.595Z,53.47
2017-11-08T23:45:35.808Z,49.10
2017-11-08T23:48:05.238Z,49.40
2017-11-08T23:50:33.490Z,49.90
2017-11-08T23:53:05.089Z,52.40
2017-11-08T23:55:37.208Z,54.40
2017-11-08T23:58:05.452Z,51.47
